sensor_id;sensor_type;location;lat;lon;timestamp;P1;durP1;ratioP1;P2;durP2;ratioP2
68097;SDS011;54886;47.036;15.466;2023-03-14T00:00:59;17.55;;;10.20;;
68097;SDS011;54886;47.036;15.466;2023-03-14T00:03:25;17.30;;;9.93;;
68097;SDS011;54886;47.036;15.466;2023-03-14T00:05:50;19.30;;;9.82;;
68097;SDS011;54886;47.036;15.466;2023-03-14T00:08:16;17.25;;;9.77;;
68097;SDS011;54886;47.036;15.466;2023-03-14T00:10:42;15.90;;;8.57;;
68097;SDS011;54886;47.036;15.466;2023-03-14T00:13:08;14.82;;;8.40;;
68097;SDS011;54886;47.036;15.466;2023-03-14T00:15:33;17.65;;;9.30;;
68097;SDS011;54886;47.036;15.466;2023-03-14T00:17:59;18.90;;;9.18;;
68097;SDS011;54886;47.036;15.466;2023-03-14T00:20:25;15.77;;;9.23;;
68097;SDS011;54886;47.036;15.466;2023-03-14T00:22:50;16.15;;;8.88;;
68097;SDS011;54886;47.036;15.466;2023-03-14T00:25:16;16.98;;;8.18;;
68097;SDS011;54886;47.036;15.466;2023-03-14T00:27:42;14.48;;;8.45;;
68097;SDS011;54886;47.036;15.466;2023-03-14T00:30:08;15.13;;;8.07;;
68097;SDS011;54886;47.036;15.466;2023-03-14T00:32:34;13.77;;;7.95;;
68097;SDS011;54886;47.036;15.466;2023-03-14T00:34:59;15.48;;;8.02;;
68097;SDS011;54886;47.036;15.466;2023-03-14T00:37:25;15.20;;;8.30;;
68097;SDS011;54886;47.036;15.466;2023-03-14T00:39:51;16.30;;;7.68;;
68097;SDS011;54886;47.036;15.466;2023-03-14T00:42:18;14.10;;;7.82;;
68097;SDS011;54886;47.036;15.466;2023-03-14T00:44:43;14.40;;;7.07;;
68097;SDS011;54886;47.036;15.466;2023-03-14T00:47:09;15.05;;;7.82;;
68097;SDS011;54886;47.036;15.466;2023-03-14T00:49:34;14.10;;;7.65;;
68097;SDS011;54886;47.036;15.466;2023-03-14T00:52:00;14.45;;;7.38;;
68097;SDS011;54886;47.036;15.466;2023-03-14T00:54:25;14.80;;;6.85;;
68097;SDS011;54886;47.036;15.466;2023-03-14T00:56:51;13.98;;;7.35;;
68097;SDS011;54886;47.036;15.466;2023-03-14T00:59:16;13.73;;;7.30;;
68097;SDS011;54886;47.036;15.466;2023-03-14T01:01:42;15.55;;;7.38;;
68097;SDS011;54886;47.036;15.466;2023-03-14T01:04:08;14.98;;;7.28;;
68097;SDS011;54886;47.036;15.466;2023-03-14T01:06:33;12.07;;;6.70;;
68097;SDS011;54886;47.036;15.466;2023-03-14T01:08:58;13.43;;;7.35;;
68097;SDS011;54886;47.036;15.466;2023-03-14T01:11:25;14.00;;;7.28;;
68097;SDS011;54886;47.036;15.466;2023-03-14T01:13:53;14.18;;;6.95;;
68097;SDS011;54886;47.036;15.466;2023-03-14T01:16:20;12.20;;;6.55;;
68097;SDS011;54886;47.036;15.466;2023-03-14T01:18:47;12.18;;;6.70;;
68097;SDS011;54886;47.036;15.466;2023-03-14T01:21:17;13.63;;;6.32;;
68097;SDS011;54886;47.036;15.466;2023-03-14T01:23:54;11.77;;;6.10;;
68097;SDS011;54886;47.036;15.466;2023-03-14T01:26:21;11.77;;;6.20;;
68097;SDS011;54886;47.036;15.466;2023-03-14T01:28:48;10.55;;;5.32;;
68097;SDS011;54886;47.036;15.466;2023-03-14T01:31:15;11.88;;;5.80;;
68097;SDS011;54886;47.036;15.466;2023-03-14T01:33:40;11.45;;;6.00;;
68097;SDS011;54886;47.036;15.466;2023-03-14T01:36:07;10.13;;;5.50;;
68097;SDS011;54886;47.036;15.466;2023-03-14T01:38:34;10.95;;;5.50;;
68097;SDS011;54886;47.036;15.466;2023-03-14T01:41:01;9.18;;;5.00;;
68097;SDS011;54886;47.036;15.466;2023-03-14T01:43:27;10.15;;;5.22;;
68097;SDS011;54886;47.036;15.466;2023-03-14T01:49:17;10.07;;;5.55;;
68097;SDS011;54886;47.036;15.466;2023-03-14T01:52:07;12.43;;;5.32;;
68097;SDS011;54886;47.036;15.466;2023-03-14T01:54:24;10.02;;;5.05;;
68097;SDS011;54886;47.036;15.466;2023-03-14T01:57:14;9.25;;;5.25;;
68097;SDS011;54886;47.036;15.466;2023-03-14T02:02:41;11.20;;;5.45;;
68097;SDS011;54886;47.036;15.466;2023-03-14T02:05:10;9.52;;;5.07;;
68097;SDS011;54886;47.036;15.466;2023-03-14T02:10:16;10.70;;;5.10;;
68097;SDS011;54886;47.036;15.466;2023-03-14T02:15:10;10.57;;;5.03;;
68097;SDS011;54886;47.036;15.466;2023-03-14T02:17:35;10.80;;;5.38;;
68097;SDS011;54886;47.036;15.466;2023-03-14T02:22:55;10.20;;;5.13;;
68097;SDS011;54886;47.036;15.466;2023-03-14T02:28:08;11.05;;;5.65;;
68097;SDS011;54886;47.036;15.466;2023-03-14T02:30:34;12.00;;;5.60;;
68097;SDS011;54886;47.036;15.466;2023-03-14T02:33:04;9.80;;;5.32;;
68097;SDS011;54886;47.036;15.466;2023-03-14T02:35:34;11.73;;;5.25;;
68097;SDS011;54886;47.036;15.466;2023-03-14T02:38:19;9.55;;;5.20;;
68097;SDS011;54886;47.036;15.466;2023-03-14T02:40:55;11.40;;;5.00;;
68097;SDS011;54886;47.036;15.466;2023-03-14T02:43:21;10.70;;;4.90;;
68097;SDS011;54886;47.036;15.466;2023-03-14T02:45:47;11.10;;;4.90;;
68097;SDS011;54886;47.036;15.466;2023-03-14T02:48:18;11.63;;;5.07;;
68097;SDS011;54886;47.036;15.466;2023-03-14T02:50:48;11.23;;;4.93;;
68097;SDS011;54886;47.036;15.466;2023-03-14T02:53:17;9.48;;;4.75;;
68097;SDS011;54886;47.036;15.466;2023-03-14T02:55:46;7.93;;;4.25;;
68097;SDS011;54886;47.036;15.466;2023-03-14T02:58:13;8.98;;;4.90;;
68097;SDS011;54886;47.036;15.466;2023-03-14T03:00:39;9.02;;;4.72;;
68097;SDS011;54886;47.036;15.466;2023-03-14T03:03:04;10.43;;;4.60;;
68097;SDS011;54886;47.036;15.466;2023-03-14T03:05:30;9.13;;;4.32;;
68097;SDS011;54886;47.036;15.466;2023-03-14T03:07:56;8.30;;;4.30;;
68097;SDS011;54886;47.036;15.466;2023-03-14T03:10:22;7.38;;;4.28;;
68097;SDS011;54886;47.036;15.466;2023-03-14T03:12:47;8.40;;;4.05;;
68097;SDS011;54886;47.036;15.466;2023-03-14T03:15:13;9.40;;;4.63;;
68097;SDS011;54886;47.036;15.466;2023-03-14T03:17:38;7.63;;;3.97;;
68097;SDS011;54886;47.036;15.466;2023-03-14T03:20:03;7.88;;;4.60;;
68097;SDS011;54886;47.036;15.466;2023-03-14T03:22:30;8.80;;;4.30;;
68097;SDS011;54886;47.036;15.466;2023-03-14T03:24:55;10.32;;;4.47;;
68097;SDS011;54886;47.036;15.466;2023-03-14T03:27:21;8.82;;;4.40;;
68097;SDS011;54886;47.036;15.466;2023-03-14T03:29:46;10.15;;;4.53;;
68097;SDS011;54886;47.036;15.466;2023-03-14T03:32:12;7.43;;;4.30;;
68097;SDS011;54886;47.036;15.466;2023-03-14T03:34:37;6.82;;;4.13;;
68097;SDS011;54886;47.036;15.466;2023-03-14T03:37:03;9.40;;;4.28;;
68097;SDS011;54886;47.036;15.466;2023-03-14T03:39:28;8.80;;;4.32;;
68097;SDS011;54886;47.036;15.466;2023-03-14T03:41:54;8.20;;;4.30;;
68097;SDS011;54886;47.036;15.466;2023-03-14T03:44:19;9.32;;;4.30;;
68097;SDS011;54886;47.036;15.466;2023-03-14T03:46:44;8.00;;;4.53;;
68097;SDS011;54886;47.036;15.466;2023-03-14T03:49:10;15.13;;;4.25;;
68097;SDS011;54886;47.036;15.466;2023-03-14T03:51:35;9.75;;;4.40;;
68097;SDS011;54886;47.036;15.466;2023-03-14T03:54:01;8.90;;;4.07;;
68097;SDS011;54886;47.036;15.466;2023-03-14T03:56:26;9.88;;;4.20;;
68097;SDS011;54886;47.036;15.466;2023-03-14T03:58:51;6.97;;;4.40;;
68097;SDS011;54886;47.036;15.466;2023-03-14T04:01:17;6.55;;;3.47;;
68097;SDS011;54886;47.036;15.466;2023-03-14T04:03:42;9.90;;;4.35;;
68097;SDS011;54886;47.036;15.466;2023-03-14T04:06:08;7.55;;;4.10;;
68097;SDS011;54886;47.036;15.466;2023-03-14T04:08:35;7.90;;;4.43;;
68097;SDS011;54886;47.036;15.466;2023-03-14T04:11:01;10.90;;;4.53;;
68097;SDS011;54886;47.036;15.466;2023-03-14T04:13:27;10.55;;;4.65;;
68097;SDS011;54886;47.036;15.466;2023-03-14T04:15:53;7.97;;;4.07;;
68097;SDS011;54886;47.036;15.466;2023-03-14T04:18:19;10.98;;;3.75;;
68097;SDS011;54886;47.036;15.466;2023-03-14T04:20:45;11.25;;;4.22;;
68097;SDS011;54886;47.036;15.466;2023-03-14T04:23:15;7.68;;;3.67;;
68097;SDS011;54886;47.036;15.466;2023-03-14T04:25:40;8.75;;;3.72;;
68097;SDS011;54886;47.036;15.466;2023-03-14T04:28:05;6.43;;;3.33;;
68097;SDS011;54886;47.036;15.466;2023-03-14T04:30:31;7.18;;;3.47;;
68097;SDS011;54886;47.036;15.466;2023-03-14T04:32:56;7.50;;;3.70;;
68097;SDS011;54886;47.036;15.466;2023-03-14T04:35:21;7.40;;;3.30;;
68097;SDS011;54886;47.036;15.466;2023-03-14T04:37:47;7.07;;;3.53;;
68097;SDS011;54886;47.036;15.466;2023-03-14T04:40:14;7.38;;;3.30;;
68097;SDS011;54886;47.036;15.466;2023-03-14T04:42:40;7.47;;;3.40;;
68097;SDS011;54886;47.036;15.466;2023-03-14T04:45:05;9.07;;;3.45;;
68097;SDS011;54886;47.036;15.466;2023-03-14T04:47:31;7.85;;;3.45;;
68097;SDS011;54886;47.036;15.466;2023-03-14T04:49:57;9.43;;;4.18;;
68097;SDS011;54886;47.036;15.466;2023-03-14T04:52:22;9.10;;;3.50;;
68097;SDS011;54886;47.036;15.466;2023-03-14T04:54:47;7.13;;;3.50;;
68097;SDS011;54886;47.036;15.466;2023-03-14T04:57:13;9.80;;;3.70;;
68097;SDS011;54886;47.036;15.466;2023-03-14T04:59:38;8.07;;;3.53;;
68097;SDS011;54886;47.036;15.466;2023-03-14T05:02:04;7.38;;;3.13;;
68097;SDS011;54886;47.036;15.466;2023-03-14T05:04:29;8.40;;;3.50;;
68097;SDS011;54886;47.036;15.466;2023-03-14T05:06:57;11.77;;;3.70;;
68097;SDS011;54886;47.036;15.466;2023-03-14T05:09:23;6.50;;;3.40;;
68097;SDS011;54886;47.036;15.466;2023-03-14T05:11:48;6.65;;;3.10;;
68097;SDS011;54886;47.036;15.466;2023-03-14T05:14:14;6.22;;;3.30;;
68097;SDS011;54886;47.036;15.466;2023-03-14T05:16:39;8.93;;;3.22;;
68097;SDS011;54886;47.036;15.466;2023-03-14T05:19:04;8.40;;;3.60;;
68097;SDS011;54886;47.036;15.466;2023-03-14T05:21:30;7.65;;;3.30;;
68097;SDS011;54886;47.036;15.466;2023-03-14T05:23:55;7.63;;;3.25;;
68097;SDS011;54886;47.036;15.466;2023-03-14T05:26:20;7.20;;;3.10;;
68097;SDS011;54886;47.036;15.466;2023-03-14T05:28:46;7.07;;;3.30;;
68097;SDS011;54886;47.036;15.466;2023-03-14T05:31:11;8.05;;;3.30;;
68097;SDS011;54886;47.036;15.466;2023-03-14T05:33:37;6.97;;;3.25;;
68097;SDS011;54886;47.036;15.466;2023-03-14T05:36:02;6.30;;;3.17;;
68097;SDS011;54886;47.036;15.466;2023-03-14T05:38:28;10.65;;;4.05;;
68097;SDS011;54886;47.036;15.466;2023-03-14T05:40:53;12.60;;;4.85;;
68097;SDS011;54886;47.036;15.466;2023-03-14T05:43:19;13.05;;;4.78;;
68097;SDS011;54886;47.036;15.466;2023-03-14T05:45:44;15.32;;;5.70;;
68097;SDS011;54886;47.036;15.466;2023-03-14T05:48:09;14.32;;;5.40;;
68097;SDS011;54886;47.036;15.466;2023-03-14T05:50:35;8.88;;;4.72;;
68097;SDS011;54886;47.036;15.466;2023-03-14T05:53:01;10.45;;;4.70;;
68097;SDS011;54886;47.036;15.466;2023-03-14T05:55:26;10.55;;;4.05;;
68097;SDS011;54886;47.036;15.466;2023-03-14T05:57:52;11.05;;;4.63;;
68097;SDS011;54886;47.036;15.466;2023-03-14T06:00:18;11.68;;;4.32;;
68097;SDS011;54886;47.036;15.466;2023-03-14T06:02:44;9.18;;;4.28;;
68097;SDS011;54886;47.036;15.466;2023-03-14T06:05:10;11.68;;;4.03;;
68097;SDS011;54886;47.036;15.466;2023-03-14T06:07:36;6.65;;;3.65;;
68097;SDS011;54886;47.036;15.466;2023-03-14T06:10:02;9.95;;;3.40;;
68097;SDS011;54886;47.036;15.466;2023-03-14T06:12:27;7.72;;;3.30;;
68097;SDS011;54886;47.036;15.466;2023-03-14T06:14:53;8.32;;;3.85;;
68097;SDS011;54886;47.036;15.466;2023-03-14T06:17:18;10.82;;;3.67;;
68097;SDS011;54886;47.036;15.466;2023-03-14T06:19:44;13.40;;;4.07;;
68097;SDS011;54886;47.036;15.466;2023-03-14T06:22:09;9.95;;;3.50;;
68097;SDS011;54886;47.036;15.466;2023-03-14T06:24:35;8.15;;;3.67;;
68097;SDS011;54886;47.036;15.466;2023-03-14T06:27:00;8.52;;;3.65;;
68097;SDS011;54886;47.036;15.466;2023-03-14T06:29:27;12.20;;;4.10;;
68097;SDS011;54886;47.036;15.466;2023-03-14T06:31:52;8.18;;;3.22;;
68097;SDS011;54886;47.036;15.466;2023-03-14T06:34:18;6.88;;;3.40;;
68097;SDS011;54886;47.036;15.466;2023-03-14T06:36:43;10.98;;;3.72;;
68097;SDS011;54886;47.036;15.466;2023-03-14T06:39:09;9.57;;;4.05;;
68097;SDS011;54886;47.036;15.466;2023-03-14T06:41:34;8.98;;;3.67;;
68097;SDS011;54886;47.036;15.466;2023-03-14T06:43:59;9.60;;;4.00;;
68097;SDS011;54886;47.036;15.466;2023-03-14T06:46:25;8.57;;;3.65;;
68097;SDS011;54886;47.036;15.466;2023-03-14T06:48:50;7.43;;;3.90;;
68097;SDS011;54886;47.036;15.466;2023-03-14T06:51:15;7.70;;;3.42;;
68097;SDS011;54886;47.036;15.466;2023-03-14T06:53:41;9.77;;;3.90;;
68097;SDS011;54886;47.036;15.466;2023-03-14T06:56:06;8.50;;;3.40;;
68097;SDS011;54886;47.036;15.466;2023-03-14T06:58:32;9.77;;;3.78;;
68097;SDS011;54886;47.036;15.466;2023-03-14T07:00:57;19.65;;;3.83;;
68097;SDS011;54886;47.036;15.466;2023-03-14T07:03:23;10.02;;;3.70;;
68097;SDS011;54886;47.036;15.466;2023-03-14T07:05:49;6.57;;;3.40;;
68097;SDS011;54886;47.036;15.466;2023-03-14T07:08:14;7.93;;;3.60;;
68097;SDS011;54886;47.036;15.466;2023-03-14T07:10:40;10.65;;;3.60;;
68097;SDS011;54886;47.036;15.466;2023-03-14T07:13:05;6.47;;;3.20;;
68097;SDS011;54886;47.036;15.466;2023-03-14T07:15:31;6.63;;;3.20;;
68097;SDS011;54886;47.036;15.466;2023-03-14T07:17:56;7.75;;;3.20;;
68097;SDS011;54886;47.036;15.466;2023-03-14T07:20:21;7.53;;;3.22;;
68097;SDS011;54886;47.036;15.466;2023-03-14T07:22:49;8.77;;;3.17;;
68097;SDS011;54886;47.036;15.466;2023-03-14T07:25:15;10.50;;;3.58;;
68097;SDS011;54886;47.036;15.466;2023-03-14T07:27:44;9.57;;;4.00;;
68097;SDS011;54886;47.036;15.466;2023-03-14T07:30:10;16.25;;;5.65;;
68097;SDS011;54886;47.036;15.466;2023-03-14T07:32:36;9.98;;;4.85;;
68097;SDS011;54886;47.036;15.466;2023-03-14T07:35:02;11.35;;;4.10;;
68097;SDS011;54886;47.036;15.466;2023-03-14T07:37:27;7.15;;;3.15;;
68097;SDS011;54886;47.036;15.466;2023-03-14T07:39:52;8.80;;;3.90;;
68097;SDS011;54886;47.036;15.466;2023-03-14T07:42:18;12.13;;;5.25;;
68097;SDS011;54886;47.036;15.466;2023-03-14T07:44:43;12.63;;;5.00;;
68097;SDS011;54886;47.036;15.466;2023-03-14T07:47:09;11.73;;;5.03;;
68097;SDS011;54886;47.036;15.466;2023-03-14T07:49:34;9.50;;;4.90;;
68097;SDS011;54886;47.036;15.466;2023-03-14T07:51:59;8.38;;;3.63;;
68097;SDS011;54886;47.036;15.466;2023-03-14T07:54:25;4.68;;;2.50;;
68097;SDS011;54886;47.036;15.466;2023-03-14T07:56:50;6.55;;;2.13;;
68097;SDS011;54886;47.036;15.466;2023-03-14T07:59:17;3.85;;;1.95;;
68097;SDS011;54886;47.036;15.466;2023-03-14T08:01:42;6.13;;;2.40;;
68097;SDS011;54886;47.036;15.466;2023-03-14T08:04:08;3.83;;;2.00;;
68097;SDS011;54886;47.036;15.466;2023-03-14T08:06:34;5.07;;;2.15;;
68097;SDS011;54886;47.036;15.466;2023-03-14T08:09:00;6.00;;;2.55;;
68097;SDS011;54886;47.036;15.466;2023-03-14T08:11:26;5.53;;;2.20;;
68097;SDS011;54886;47.036;15.466;2023-03-14T08:13:51;8.23;;;2.58;;
68097;SDS011;54886;47.036;15.466;2023-03-14T08:16:17;4.75;;;2.10;;
68097;SDS011;54886;47.036;15.466;2023-03-14T08:18:43;6.65;;;2.30;;
68097;SDS011;54886;47.036;15.466;2023-03-14T08:21:09;6.28;;;2.05;;
68097;SDS011;54886;47.036;15.466;2023-03-14T08:23:35;3.78;;;1.75;;
68097;SDS011;54886;47.036;15.466;2023-03-14T08:26:01;5.18;;;1.80;;
68097;SDS011;54886;47.036;15.466;2023-03-14T08:28:26;5.85;;;2.20;;
68097;SDS011;54886;47.036;15.466;2023-03-14T08:30:55;6.00;;;1.90;;
68097;SDS011;54886;47.036;15.466;2023-03-14T08:33:22;6.57;;;1.92;;
68097;SDS011;54886;47.036;15.466;2023-03-14T08:35:51;3.17;;;1.70;;
68097;SDS011;54886;47.036;15.466;2023-03-14T08:38:20;5.60;;;1.90;;
68097;SDS011;54886;47.036;15.466;2023-03-14T08:40:45;5.07;;;1.80;;
68097;SDS011;54886;47.036;15.466;2023-03-14T08:43:10;3.85;;;1.80;;
68097;SDS011;54886;47.036;15.466;2023-03-14T08:45:36;7.85;;;1.83;;
68097;SDS011;54886;47.036;15.466;2023-03-14T08:48:01;5.20;;;1.85;;
68097;SDS011;54886;47.036;15.466;2023-03-14T08:50:27;3.25;;;1.60;;
68097;SDS011;54886;47.036;15.466;2023-03-14T08:52:52;4.80;;;1.70;;
68097;SDS011;54886;47.036;15.466;2023-03-14T08:55:17;4.97;;;1.70;;
68097;SDS011;54886;47.036;15.466;2023-03-14T08:57:43;5.00;;;1.88;;
68097;SDS011;54886;47.036;15.466;2023-03-14T09:00:09;3.00;;;1.70;;
68097;SDS011;54886;47.036;15.466;2023-03-14T09:02:37;6.38;;;1.75;;
68097;SDS011;54886;47.036;15.466;2023-03-14T09:05:03;4.53;;;1.55;;
68097;SDS011;54886;47.036;15.466;2023-03-14T09:07:29;6.00;;;1.70;;
68097;SDS011;54886;47.036;15.466;2023-03-14T09:09:54;4.70;;;1.90;;
68097;SDS011;54886;47.036;15.466;2023-03-14T09:12:19;3.10;;;1.67;;
68097;SDS011;54886;47.036;15.466;2023-03-14T09:14:45;2.40;;;1.60;;
68097;SDS011;54886;47.036;15.466;2023-03-14T09:17:10;4.97;;;1.60;;
68097;SDS011;54886;47.036;15.466;2023-03-14T09:19:36;3.78;;;1.60;;
68097;SDS011;54886;47.036;15.466;2023-03-14T09:22:01;3.42;;;1.70;;
68097;SDS011;54886;47.036;15.466;2023-03-14T09:24:27;4.50;;;1.70;;
68097;SDS011;54886;47.036;15.466;2023-03-14T09:26:52;7.20;;;1.70;;
68097;SDS011;54886;47.036;15.466;2023-03-14T09:29:19;7.50;;;1.83;;
68097;SDS011;54886;47.036;15.466;2023-03-14T09:31:45;4.45;;;1.63;;
68097;SDS011;54886;47.036;15.466;2023-03-14T09:34:10;4.70;;;2.00;;
68097;SDS011;54886;47.036;15.466;2023-03-14T09:36:36;4.90;;;1.80;;
68097;SDS011;54886;47.036;15.466;2023-03-14T09:39:03;7.93;;;1.70;;
68097;SDS011;54886;47.036;15.466;2023-03-14T09:41:35;3.78;;;1.60;;
68097;SDS011;54886;47.036;15.466;2023-03-14T09:44:21;6.20;;;1.70;;
68097;SDS011;54886;47.036;15.466;2023-03-14T09:46:51;4.78;;;1.80;;
68097;SDS011;54886;47.036;15.466;2023-03-14T09:51:49;3.92;;;1.88;;
68097;SDS011;54886;47.036;15.466;2023-03-14T09:54:23;3.85;;;1.58;;
68097;SDS011;54886;47.036;15.466;2023-03-14T09:56:54;5.22;;;1.77;;
68097;SDS011;54886;47.036;15.466;2023-03-14T09:59:20;4.55;;;1.65;;
68097;SDS011;54886;47.036;15.466;2023-03-14T10:01:45;6.03;;;1.80;;
68097;SDS011;54886;47.036;15.466;2023-03-14T10:04:12;5.05;;;1.67;;
68097;SDS011;54886;47.036;15.466;2023-03-14T10:06:42;4.85;;;1.50;;
68097;SDS011;54886;47.036;15.466;2023-03-14T10:09:17;3.33;;;1.40;;
68097;SDS011;54886;47.036;15.466;2023-03-14T10:11:51;3.97;;;1.60;;
68097;SDS011;54886;47.036;15.466;2023-03-14T10:14:28;5.90;;;1.65;;
68097;SDS011;54886;47.036;15.466;2023-03-14T10:17:04;5.60;;;1.60;;
68097;SDS011;54886;47.036;15.466;2023-03-14T10:19:35;6.65;;;1.77;;
68097;SDS011;54886;47.036;15.466;2023-03-14T10:22:02;5.32;;;1.58;;
68097;SDS011;54886;47.036;15.466;2023-03-14T10:24:33;5.32;;;1.50;;
68097;SDS011;54886;47.036;15.466;2023-03-14T10:27:08;4.68;;;1.63;;
68097;SDS011;54886;47.036;15.466;2023-03-14T10:29:52;6.82;;;1.60;;
68097;SDS011;54886;47.036;15.466;2023-03-14T10:32:23;3.10;;;1.42;;
68097;SDS011;54886;47.036;15.466;2023-03-14T10:37:50;3.60;;;1.42;;
68097;SDS011;54886;47.036;15.466;2023-03-14T10:40:31;4.35;;;1.75;;
68097;SDS011;54886;47.036;15.466;2023-03-14T10:43:05;5.10;;;1.90;;
68097;SDS011;54886;47.036;15.466;2023-03-14T10:45:38;6.57;;;1.90;;
68097;SDS011;54886;47.036;15.466;2023-03-14T10:48:19;7.05;;;1.95;;
68097;SDS011;54886;47.036;15.466;2023-03-14T10:50:53;4.68;;;1.80;;
68097;SDS011;54886;47.036;15.466;2023-03-14T10:53:20;3.50;;;1.60;;
68097;SDS011;54886;47.036;15.466;2023-03-14T10:55:47;2.67;;;1.40;;
68097;SDS011;54886;47.036;15.466;2023-03-14T10:58:25;7.00;;;2.00;;
68097;SDS011;54886;47.036;15.466;2023-03-14T11:03:29;1.80;;;0.80;;
68097;SDS011;54886;47.036;15.466;2023-03-14T11:06:06;1.25;;;0.90;;
68097;SDS011;54886;47.036;15.466;2023-03-14T11:08:53;5.15;;;1.10;;
68097;SDS011;54886;47.036;15.466;2023-03-14T11:11:33;5.28;;;1.00;;
68097;SDS011;54886;47.036;15.466;2023-03-14T11:14:05;2.30;;;0.88;;
68097;SDS011;54886;47.036;15.466;2023-03-14T11:19:11;0.77;;;0.60;;
68097;SDS011;54886;47.036;15.466;2023-03-14T11:24:45;1.38;;;0.90;;
68097;SDS011;54886;47.036;15.466;2023-03-14T11:27:21;0.60;;;0.60;;
68097;SDS011;54886;47.036;15.466;2023-03-14T11:29:53;0.68;;;0.68;;
68097;SDS011;54886;47.036;15.466;2023-03-14T11:32:44;2.03;;;0.70;;
68097;SDS011;54886;47.036;15.466;2023-03-14T11:40:55;1.60;;;0.80;;
68097;SDS011;54886;47.036;15.466;2023-03-14T11:43:30;1.65;;;1.00;;
68097;SDS011;54886;47.036;15.466;2023-03-14T11:46:05;1.33;;;0.95;;
68097;SDS011;54886;47.036;15.466;2023-03-14T11:48:52;2.83;;;0.88;;
68097;SDS011;54886;47.036;15.466;2023-03-14T11:51:50;1.77;;;0.70;;
68097;SDS011;54886;47.036;15.466;2023-03-14T11:54:30;4.45;;;0.93;;
68097;SDS011;54886;47.036;15.466;2023-03-14T11:57:05;0.82;;;0.82;;
68097;SDS011;54886;47.036;15.466;2023-03-14T12:10:51;0.65;;;0.60;;
68097;SDS011;54886;47.036;15.466;2023-03-14T12:13:19;0.95;;;0.70;;
68097;SDS011;54886;47.036;15.466;2023-03-14T12:18:21;1.33;;;0.93;;
68097;SDS011;54886;47.036;15.466;2023-03-14T12:20:54;2.28;;;1.10;;
68097;SDS011;54886;47.036;15.466;2023-03-14T12:23:24;2.30;;;1.00;;
68097;SDS011;54886;47.036;15.466;2023-03-14T12:26:25;3.20;;;1.17;;
68097;SDS011;54886;47.036;15.466;2023-03-14T12:28:52;2.88;;;1.17;;
68097;SDS011;54886;47.036;15.466;2023-03-14T12:31:37;2.10;;;1.42;;
68097;SDS011;54886;47.036;15.466;2023-03-14T12:39:31;2.63;;;1.20;;
68097;SDS011;54886;47.036;15.466;2023-03-14T12:46:56;1.00;;;0.90;;
68097;SDS011;54886;47.036;15.466;2023-03-14T12:49:24;2.58;;;1.10;;
68097;SDS011;54886;47.036;15.466;2023-03-14T12:52:01;1.08;;;0.98;;
68097;SDS011;54886;47.036;15.466;2023-03-14T12:59:51;1.75;;;1.23;;
68097;SDS011;54886;47.036;15.466;2023-03-14T13:02:21;3.13;;;1.13;;
68097;SDS011;54886;47.036;15.466;2023-03-14T13:05:09;2.20;;;1.10;;
68097;SDS011;54886;47.036;15.466;2023-03-14T13:12:41;2.28;;;1.23;;
68097;SDS011;54886;47.036;15.466;2023-03-14T13:15:29;1.02;;;0.90;;
